createdAt,value
2019-01-18T00:00:40.411Z,1.57
2019-01-18T00:01:37.613Z,1.55
2019-01-18T00:02:34.538Z,1.57
2019-01-18T00:03:31.623Z,1.53
2019-01-18T00:04:28.675Z,1.54
2019-01-18T00:05:25.743Z,1.52
2019-01-18T00:06:22.807Z,1.52
2019-01-18T00:07:19.863Z,1.51
2019-01-18T00:08:17.934Z,1.51
2019-01-18T00:09:14.001Z,1.48
2019-01-18T00:10:11.070Z,1.49
2019-01-18T00:11:08.130Z,1.48
2019-01-18T00:12:06.187Z,1.48
2019-01-18T00:13:03.263Z,1.47
2019-01-18T00:13:59.323Z,1.47
2019-01-18T00:14:57.423Z,1.48
2019-01-18T00:15:53.653Z,1.47
2019-01-18T00:16:50.536Z,1.47
2019-01-18T00:17:47.622Z,1.47
2019-01-18T00:18:44.667Z,1.47
2019-01-18T00:19:41.750Z,1.47
2019-01-18T00:20:38.878Z,1.47
2019-01-18T00:21:35.879Z,1.48
2019-01-18T00:22:32.933Z,1.48
2019-01-18T00:23:30.006Z,1.50
2019-01-18T00:24:27.060Z,1.50
2019-01-18T00:25:24.126Z,1.51
2019-01-18T00:26:21.249Z,1.51
2019-01-18T00:27:18.253Z,1.52
2019-01-18T00:28:15.323Z,1.52
2019-01-18T00:29:12.399Z,1.53
2019-01-18T00:30:09.621Z,1.54
2019-01-18T00:31:06.534Z,1.57
2019-01-18T00:32:03.612Z,1.57
2019-01-18T00:33:00.668Z,1.58
2019-01-18T00:33:57.748Z,1.59
2019-01-18T00:34:54.814Z,1.59
2019-01-18T00:35:51.917Z,1.61
2019-01-18T00:36:48.936Z,1.60
2019-01-18T00:37:45.992Z,1.60
2019-01-18T00:38:43.375Z,1.60
2019-01-18T00:39:40.142Z,1.62
2019-01-18T00:40:37.208Z,1.62
2019-01-18T00:41:34.268Z,1.61
2019-01-18T00:42:31.320Z,1.62
2019-01-18T00:43:28.403Z,1.62
2019-01-18T00:44:25.468Z,1.62
2019-01-18T00:45:22.538Z,1.62
2019-01-18T00:46:19.608Z,1.62
2019-01-18T00:47:16.676Z,1.61
2019-01-18T00:48:13.736Z,1.60
2019-01-18T00:49:10.808Z,1.60
2019-01-18T00:50:07.860Z,1.61
2019-01-18T00:51:04.916Z,1.60
2019-01-18T00:52:01.990Z,1.60
2019-01-18T00:52:59.059Z,1.61
2019-01-18T00:53:56.140Z,1.61
2019-01-18T00:54:53.182Z,1.61
2019-01-18T00:55:50.266Z,1.60
2019-01-18T00:56:47.329Z,1.60
2019-01-18T00:57:44.401Z,1.61
2019-01-18T00:58:41.616Z,1.60
2019-01-18T00:59:38.521Z,1.60
2019-01-18T01:00:35.610Z,1.58
2019-01-18T01:01:32.663Z,1.58
2019-01-18T01:02:29.826Z,1.59
2019-01-18T01:03:26.794Z,1.55
2019-01-18T01:04:23.867Z,1.58
2019-01-18T01:05:20.931Z,1.58
2019-01-18T01:06:18.000Z,1.57
2019-01-18T01:07:15.076Z,1.58
2019-01-18T01:08:12.125Z,1.55
2019-01-18T01:09:09.191Z,1.55
2019-01-18T01:10:06.278Z,1.55
2019-01-18T01:11:03.336Z,1.57
2019-01-18T01:12:00.395Z,1.53
2019-01-18T01:12:57.626Z,1.53
2019-01-18T01:13:54.526Z,1.52
2019-01-18T01:14:51.647Z,1.53
2019-01-18T01:15:48.670Z,1.54
2019-01-18T01:16:45.725Z,1.53
2019-01-18T01:17:42.783Z,1.52
2019-01-18T01:18:39.863Z,1.52
2019-01-18T01:19:36.930Z,1.52
2019-01-18T01:20:34.002Z,1.52
2019-01-18T01:21:31.069Z,1.52
2019-01-18T01:22:28.146Z,1.54
2019-01-18T01:23:25.203Z,1.53
2019-01-18T01:24:22.267Z,1.55
2019-01-18T01:25:19.316Z,1.55
2019-01-18T01:26:16.392Z,1.55
2019-01-18T01:27:13.614Z,1.57
2019-01-18T01:28:10.523Z,1.55
2019-01-18T01:29:07.616Z,1.53
2019-01-18T01:30:04.708Z,1.54
2019-01-18T01:31:01.735Z,1.52
2019-01-18T01:31:58.783Z,1.52
2019-01-18T01:32:55.866Z,1.52
2019-01-18T01:33:52.924Z,1.52
2019-01-18T01:34:49.991Z,1.52
2019-01-18T01:35:47.051Z,1.51
2019-01-18T01:36:44.127Z,1.52
2019-01-18T01:37:41.198Z,1.51
2019-01-18T01:38:38.331Z,1.52
2019-01-18T01:39:35.320Z,1.50
2019-01-18T01:40:32.417Z,1.50
2019-01-18T01:41:29.461Z,1.51
2019-01-18T01:42:26.538Z,1.51
2019-01-18T01:43:23.628Z,1.51
2019-01-18T01:44:20.674Z,1.51
2019-01-18T01:45:17.722Z,1.50
2019-01-18T01:46:14.802Z,1.50
2019-01-18T01:47:11.853Z,1.50
2019-01-18T01:48:08.924Z,1.50
2019-01-18T01:49:05.984Z,1.50
2019-01-18T01:50:03.059Z,1.51
2019-01-18T01:51:00.153Z,1.51
2019-01-18T01:51:57.190Z,1.52
2019-01-18T01:52:54.263Z,1.52
2019-01-18T01:53:51.323Z,1.52
2019-01-18T01:54:48.389Z,1.52
2019-01-18T01:55:45.459Z,1.52
2019-01-18T01:56:42.520Z,1.53
2019-01-18T01:57:39.617Z,1.52
2019-01-18T01:58:36.651Z,1.52
2019-01-18T01:59:33.730Z,1.53
2019-01-18T02:00:30.789Z,1.53
2019-01-18T02:01:27.857Z,1.54
2019-01-18T02:02:24.930Z,1.54
2019-01-18T02:03:21.988Z,1.55
2019-01-18T02:04:19.055Z,1.55
2019-01-18T02:05:15.653Z,1.54
2019-01-18T02:06:13.202Z,1.57
2019-01-18T02:07:10.263Z,1.59
2019-01-18T02:08:07.325Z,1.58
2019-01-18T02:09:04.377Z,1.58
2019-01-18T02:10:02.450Z,1.60
2019-01-18T02:10:58.520Z,1.60
2019-01-18T02:11:55.601Z,1.60
2019-01-18T02:12:52.663Z,1.61
2019-01-18T02:13:49.726Z,1.61
2019-01-18T02:14:46.787Z,1.61
2019-01-18T02:15:43.853Z,1.62
2019-01-18T02:16:40.967Z,1.61
2019-01-18T02:17:38.028Z,1.62
2019-01-18T02:18:35.060Z,1.61
2019-01-18T02:19:32.129Z,1.61
2019-01-18T02:20:29.192Z,1.61
2019-01-18T02:21:26.263Z,1.61
2019-01-18T02:22:23.339Z,1.61
2019-01-18T02:23:20.392Z,1.62
2019-01-18T02:24:17.623Z,1.62
2019-01-18T02:25:14.534Z,1.63
2019-01-18T02:26:11.590Z,1.63
2019-01-18T02:27:08.657Z,1.65
2019-01-18T02:28:05.720Z,1.66
2019-01-18T02:29:02.819Z,1.67
2019-01-18T02:29:59.856Z,1.69
2019-01-18T02:30:56.935Z,1.67
2019-01-18T02:31:53.991Z,1.69
2019-01-18T02:32:51.051Z,1.71
2019-01-18T02:33:48.125Z,1.69
2019-01-18T02:34:45.192Z,1.70
2019-01-18T02:35:42.246Z,1.70
2019-01-18T02:36:39.342Z,1.69
2019-01-18T02:37:36.403Z,1.69
2019-01-18T02:38:33.593Z,1.67
2019-01-18T02:39:30.528Z,1.67
2019-01-18T02:40:27.580Z,1.69
2019-01-18T02:41:24.655Z,1.67
2019-01-18T02:42:21.712Z,1.66
2019-01-18T02:43:18.796Z,1.66
2019-01-18T02:44:15.856Z,1.66
2019-01-18T02:45:12.922Z,1.66
2019-01-18T02:46:09.985Z,1.65
2019-01-18T02:47:07.055Z,1.64
2019-01-18T02:48:04.122Z,1.63
2019-01-18T02:49:02.174Z,1.62
2019-01-18T02:49:58.244Z,1.61
2019-01-18T02:50:55.325Z,1.60
2019-01-18T02:51:52.377Z,1.61
2019-01-18T02:52:49.624Z,1.58
2019-01-18T02:53:46.521Z,1.57
2019-01-18T02:54:43.588Z,1.58
2019-01-18T02:55:40.658Z,1.58
2019-01-18T02:56:37.729Z,1.58
2019-01-18T02:57:34.788Z,1.58
2019-01-18T02:58:31.858Z,1.57
2019-01-18T02:59:28.929Z,1.58
2019-01-18T03:00:25.993Z,1.58
2019-01-18T03:01:23.044Z,1.57
2019-01-18T03:02:20.105Z,1.57
2019-01-18T03:03:17.189Z,1.57
2019-01-18T03:04:14.282Z,1.57
2019-01-18T03:05:11.316Z,1.55
2019-01-18T03:06:08.408Z,1.54
2019-01-18T03:07:06.442Z,1.53
2019-01-18T03:08:02.532Z,1.55
2019-01-18T03:08:59.586Z,1.54
2019-01-18T03:09:56.661Z,1.53
2019-01-18T03:10:53.747Z,1.52
2019-01-18T03:11:51.807Z,1.52
2019-01-18T03:12:47.868Z,1.53
2019-01-18T03:13:44.924Z,1.52
2019-01-18T03:14:41.998Z,1.53
2019-01-18T03:15:39.067Z,1.53
2019-01-18T03:16:36.613Z,1.52
2019-01-18T03:17:33.188Z,1.52
2019-01-18T03:18:30.254Z,1.52
2019-01-18T03:19:27.322Z,1.53
2019-01-18T03:20:24.398Z,1.53
2019-01-18T03:21:21.446Z,1.52
2019-01-18T03:22:18.510Z,1.50
2019-01-18T03:23:15.622Z,1.51
2019-01-18T03:24:12.657Z,1.50
2019-01-18T03:25:09.715Z,1.50
2019-01-18T03:26:06.776Z,1.51
2019-01-18T03:27:03.856Z,1.50
2019-01-18T03:28:00.927Z,1.49
2019-01-18T03:28:57.981Z,1.49
2019-01-18T03:29:55.065Z,1.47
2019-01-18T03:30:52.140Z,1.47
2019-01-18T03:31:49.210Z,1.47
2019-01-18T03:32:46.295Z,1.46
2019-01-18T03:33:43.338Z,1.47
2019-01-18T03:34:40.375Z,1.47
2019-01-18T03:35:37.603Z,1.45
2019-01-18T03:36:34.527Z,1.44
2019-01-18T03:37:31.618Z,1.42
2019-01-18T03:38:29.157Z,1.41
2019-01-18T03:39:25.713Z,1.40
2019-01-18T03:40:22.777Z,1.40
2019-01-18T03:41:19.871Z,1.39
2019-01-18T03:42:16.922Z,1.39
2019-01-18T03:43:13.998Z,1.39
2019-01-18T03:44:11.055Z,1.39
2019-01-18T03:45:08.114Z,1.39
2019-01-18T03:46:05.190Z,1.38
2019-01-18T03:47:02.252Z,1.38
2019-01-18T03:47:59.316Z,1.38
2019-01-18T03:48:56.395Z,1.37
2019-01-18T03:49:53.605Z,1.35
2019-01-18T03:50:50.522Z,1.36
2019-01-18T03:51:48.577Z,1.35
2019-01-18T03:52:44.674Z,1.37
2019-01-18T03:53:41.720Z,1.37
2019-01-18T03:54:38.784Z,1.35
2019-01-18T03:55:35.853Z,1.35
2019-01-18T03:56:32.924Z,1.36
2019-01-18T03:57:29.986Z,1.33
2019-01-18T03:58:27.059Z,1.33
2019-01-18T03:59:24.473Z,1.32
2019-01-18T04:00:26.301Z,1.30
2019-01-18T04:01:18.250Z,1.29
2019-01-18T04:02:15.316Z,1.27
2019-01-18T04:03:12.390Z,1.26
2019-01-18T04:04:09.614Z,1.24
2019-01-18T04:05:06.524Z,1.23
2019-01-18T04:06:03.644Z,1.21
2019-01-18T04:07:01.105Z,1.21
2019-01-18T04:07:57.731Z,1.19
2019-01-18T04:08:54.773Z,1.17
2019-01-18T04:09:51.856Z,1.15
2019-01-18T04:10:48.925Z,1.14
2019-01-18T04:11:45.988Z,1.16
2019-01-18T04:12:43.054Z,1.15
2019-01-18T04:13:39.620Z,1.14
2019-01-18T04:14:37.185Z,1.14
2019-01-18T04:15:34.242Z,1.14
2019-01-18T04:16:31.350Z,1.14
2019-01-18T04:17:28.387Z,1.13
2019-01-18T04:18:26.446Z,1.14
2019-01-18T04:19:22.524Z,1.14
2019-01-18T04:20:19.633Z,1.13
2019-01-18T04:21:16.678Z,1.13
2019-01-18T04:22:13.709Z,1.13
2019-01-18T04:23:10.788Z,1.13
2019-01-18T04:24:07.852Z,1.11
2019-01-18T04:25:04.930Z,1.11
2019-01-18T04:26:02.985Z,1.11
2019-01-18T04:26:59.048Z,1.10
2019-01-18T04:27:56.132Z,1.08
2019-01-18T04:28:53.188Z,1.08
2019-01-18T04:29:50.260Z,1.07
2019-01-18T04:30:47.337Z,1.07
2019-01-18T04:31:44.375Z,1.07
2019-01-18T04:32:41.471Z,1.07
2019-01-18T04:33:38.527Z,1.05
2019-01-18T04:34:35.599Z,1.04
2019-01-18T04:35:32.651Z,1.05
2019-01-18T04:36:29.753Z,1.03
2019-01-18T04:37:26.781Z,1.04
2019-01-18T04:38:23.854Z,1.03
2019-01-18T04:39:20.940Z,1.03
2019-01-18T04:40:17.968Z,1.02
2019-01-18T04:41:15.068Z,1.02
2019-01-18T04:42:12.183Z,1.00
2019-01-18T04:43:09.196Z,1.00
2019-01-18T04:44:06.256Z,1.00
2019-01-18T04:45:03.321Z,0.98
2019-01-18T04:46:00.407Z,0.98
2019-01-18T04:46:57.461Z,0.98
2019-01-18T04:47:54.515Z,0.96
2019-01-18T04:48:51.601Z,0.97
2019-01-18T04:49:48.659Z,0.98
2019-01-18T04:50:45.713Z,0.96
2019-01-18T04:51:42.788Z,0.96
2019-01-18T04:52:39.854Z,0.96
2019-01-18T04:53:36.936Z,0.96
2019-01-18T04:54:33.986Z,0.96
2019-01-18T04:55:31.048Z,0.98
2019-01-18T04:56:28.120Z,0.97
2019-01-18T04:57:25.182Z,0.98
2019-01-18T04:58:22.249Z,0.99
2019-01-18T04:59:19.305Z,0.98
2019-01-18T05:00:16.388Z,0.99
2019-01-18T05:01:13.466Z,0.99
2019-01-18T05:02:10.512Z,0.99
2019-01-18T05:03:07.599Z,0.99
2019-01-18T05:04:04.645Z,1.00
2019-01-18T05:05:01.708Z,1.00
2019-01-18T05:05:58.792Z,1.00
2019-01-18T05:06:55.851Z,1.00
2019-01-18T05:07:52.919Z,1.00
2019-01-18T05:08:49.983Z,1.00
2019-01-18T05:09:47.092Z,1.00
2019-01-18T05:10:44.113Z,1.01
2019-01-18T05:11:41.171Z,1.01
2019-01-18T05:12:38.255Z,1.00
2019-01-18T05:13:35.318Z,1.01
2019-01-18T05:14:32.390Z,1.01
2019-01-18T05:15:29.448Z,1.00
2019-01-18T05:16:26.502Z,1.01
2019-01-18T05:17:23.569Z,1.02
2019-01-18T05:18:20.660Z,1.02
2019-01-18T05:19:17.699Z,1.04
2019-01-18T05:20:14.786Z,1.05
2019-01-18T05:21:11.853Z,1.05
2019-01-18T05:22:08.907Z,1.07
2019-01-18T05:23:05.975Z,1.08
2019-01-18T05:24:04.051Z,1.10
2019-01-18T05:25:00.271Z,1.09
2019-01-18T05:25:57.195Z,1.11
2019-01-18T05:26:54.256Z,1.12
2019-01-18T05:27:51.315Z,1.13
2019-01-18T05:28:48.380Z,1.13
2019-01-18T05:29:44.949Z,1.14
2019-01-18T05:30:47.428Z,1.15
2019-01-18T05:31:39.618Z,1.16
2019-01-18T05:32:36.648Z,1.19
2019-01-18T05:33:33.717Z,1.17
2019-01-18T05:34:30.783Z,1.20
2019-01-18T05:35:27.846Z,1.22
2019-01-18T05:36:24.920Z,1.23
2019-01-18T05:37:21.991Z,1.24
2019-01-18T05:38:19.056Z,1.25
2019-01-18T05:39:16.120Z,1.26
2019-01-18T05:40:13.184Z,1.26
2019-01-18T05:41:10.262Z,1.26
2019-01-18T05:42:07.315Z,1.26
2019-01-18T05:43:04.392Z,1.26
2019-01-18T05:44:01.456Z,1.25
2019-01-18T05:44:58.527Z,1.23
2019-01-18T05:45:55.683Z,1.23
2019-01-18T05:46:53.730Z,1.22
2019-01-18T05:47:49.716Z,1.20
2019-01-18T05:48:46.775Z,1.19
2019-01-18T05:49:43.855Z,1.17
2019-01-18T05:50:40.924Z,1.14
2019-01-18T05:51:37.987Z,1.13
2019-01-18T05:52:35.045Z,1.12
2019-01-18T05:53:32.118Z,1.11
2019-01-18T05:54:29.614Z,1.09
2019-01-18T05:55:26.245Z,1.09
2019-01-18T05:56:23.312Z,1.05
2019-01-18T05:57:20.423Z,1.03
2019-01-18T05:58:17.445Z,1.02
2019-01-18T05:59:14.563Z,1.00
2019-01-18T06:00:11.605Z,0.99
2019-01-18T06:01:08.651Z,0.97
2019-01-18T06:02:05.712Z,0.95
2019-01-18T06:03:02.778Z,0.94
2019-01-18T06:03:59.848Z,0.92
2019-01-18T06:04:56.418Z,0.91
2019-01-18T06:05:53.992Z,0.87
2019-01-18T06:06:51.056Z,0.86
2019-01-18T06:07:48.124Z,0.83
2019-01-18T06:08:45.180Z,0.81
2019-01-18T06:09:42.239Z,0.79
2019-01-18T06:10:39.331Z,0.76
2019-01-18T06:11:36.393Z,0.74
2019-01-18T06:12:33.431Z,0.72
2019-01-18T06:13:31.659Z,0.70
2019-01-18T06:14:27.580Z,0.69
2019-01-18T06:15:24.682Z,0.67
2019-01-18T06:16:22.706Z,0.65
2019-01-18T06:17:18.796Z,0.65
2019-01-18T06:18:15.833Z,0.63
2019-01-18T06:19:12.931Z,0.62
2019-01-18T06:20:09.980Z,0.60
2019-01-18T06:21:07.045Z,0.58
2019-01-18T06:22:04.109Z,0.58
2019-01-18T06:23:01.183Z,0.57
2019-01-18T06:23:59.235Z,0.56
2019-01-18T06:24:55.308Z,0.55
2019-01-18T06:25:52.380Z,0.54
2019-01-18T06:26:49.447Z,0.54
2019-01-18T06:27:46.515Z,0.54
2019-01-18T06:28:44.604Z,0.52
2019-01-18T06:29:40.681Z,0.52
2019-01-18T06:30:37.718Z,0.51
2019-01-18T06:31:34.777Z,0.51
2019-01-18T06:32:31.868Z,0.51
2019-01-18T06:33:30.047Z,0.49
2019-01-18T06:34:26.031Z,0.49
2019-01-18T06:35:23.035Z,0.48
2019-01-18T06:36:20.113Z,0.47
2019-01-18T06:37:17.189Z,0.47
2019-01-18T06:38:14.243Z,0.45
2019-01-18T06:39:11.308Z,0.44
2019-01-18T06:40:08.384Z,0.43
2019-01-18T06:41:05.444Z,0.42
2019-01-18T06:42:02.513Z,0.40
2019-01-18T06:42:59.612Z,0.41
2019-01-18T06:43:56.660Z,0.39
2019-01-18T06:44:53.704Z,0.37
2019-01-18T06:45:50.283Z,0.37
2019-01-18T06:46:47.852Z,0.36
2019-01-18T06:47:44.914Z,0.36
2019-01-18T06:48:41.997Z,0.36
2019-01-18T06:49:39.038Z,0.36
2019-01-18T06:50:37.110Z,0.35
2019-01-18T06:51:33.204Z,0.34
2019-01-18T06:52:30.249Z,0.35
2019-01-18T06:53:27.332Z,0.34
2019-01-18T06:54:24.384Z,0.34
2019-01-18T06:55:21.450Z,0.36
2019-01-18T06:56:18.512Z,0.35
2019-01-18T06:57:15.608Z,0.35
2019-01-18T06:58:12.668Z,0.37
2019-01-18T06:59:09.708Z,0.35
2019-01-18T07:00:06.792Z,0.36
2019-01-18T07:01:08.452Z,0.36
2019-01-18T07:02:00.918Z,0.34
2019-01-18T07:02:57.982Z,0.35
2019-01-18T07:03:55.051Z,0.35
2019-01-18T07:04:52.131Z,0.35
2019-01-18T07:05:49.175Z,0.34
2019-01-18T07:06:46.232Z,0.34
2019-01-18T07:07:43.311Z,0.34
2019-01-18T07:08:40.385Z,0.33
2019-01-18T07:09:37.447Z,0.33
2019-01-18T07:10:35.600Z,0.33
2019-01-18T07:11:31.602Z,0.31
2019-01-18T07:12:28.637Z,0.31
2019-01-18T07:13:25.726Z,0.31
2019-01-18T07:14:22.782Z,0.28
2019-01-18T07:15:19.849Z,0.29
2019-01-18T07:16:16.896Z,0.27
2019-01-18T07:17:13.993Z,0.26
2019-01-18T07:18:11.048Z,0.26
2019-01-18T07:19:08.103Z,0.24
2019-01-18T07:20:05.189Z,0.24
2019-01-18T07:21:02.250Z,0.23
2019-01-18T07:21:59.313Z,0.21
2019-01-18T07:22:56.383Z,0.19
2019-01-18T07:23:53.598Z,0.19
2019-01-18T07:24:50.523Z,0.17
2019-01-18T07:25:47.609Z,0.17
2019-01-18T07:26:44.656Z,0.16
2019-01-18T07:27:41.713Z,0.14
2019-01-18T07:28:38.786Z,0.14
2019-01-18T07:29:35.837Z,0.13
2019-01-18T07:30:32.929Z,0.13
2019-01-18T07:31:29.980Z,0.10
2019-01-18T07:32:27.043Z,0.10
2019-01-18T07:33:24.116Z,0.10
2019-01-18T07:34:21.179Z,0.08
2019-01-18T07:35:18.251Z,0.07
2019-01-18T07:36:15.318Z,0.07
2019-01-18T07:37:12.382Z,0.06
2019-01-18T07:38:09.614Z,0.04
2019-01-18T07:39:06.510Z,0.05
2019-01-18T07:40:04.547Z,0.04
2019-01-18T07:41:00.650Z,0.04
2019-01-18T07:41:57.715Z,0.03
2019-01-18T07:42:54.785Z,0.03
2019-01-18T07:43:51.844Z,0.01
2019-01-18T07:44:48.913Z,0.01
2019-01-18T07:45:45.982Z,0.00
2019-01-18T07:46:43.051Z,-0.02
2019-01-18T07:47:40.113Z,0.00
2019-01-18T07:48:37.186Z,-0.02
2019-01-18T07:49:34.234Z,-0.03
2019-01-18T07:50:31.311Z,-0.03
2019-01-18T07:51:28.391Z,-0.05
2019-01-18T07:52:25.601Z,-0.05
2019-01-18T07:53:22.516Z,-0.06
2019-01-18T07:54:19.899Z,-0.07
2019-01-18T07:55:16.651Z,-0.08
2019-01-18T07:56:13.717Z,-0.07
2019-01-18T07:57:11.787Z,-0.08
2019-01-18T07:58:07.866Z,-0.08
2019-01-18T07:59:04.914Z,-0.09
2019-01-18T08:00:02.006Z,-0.08
2019-01-18T08:00:59.041Z,-0.08
2019-01-18T08:01:56.142Z,-0.07
2019-01-18T08:02:53.164Z,-0.05
2019-01-18T08:03:50.252Z,-0.04
2019-01-18T08:04:47.308Z,0.00
2019-01-18T08:05:44.373Z,0.03
2019-01-18T08:06:41.597Z,0.06
2019-01-18T08:07:38.515Z,0.09
2019-01-18T08:08:35.626Z,0.12
2019-01-18T08:09:32.630Z,0.14
2019-01-18T08:10:29.709Z,0.17
2019-01-18T08:11:26.777Z,0.19
2019-01-18T08:12:23.839Z,0.21
2019-01-18T08:13:20.906Z,0.21
2019-01-18T08:14:17.992Z,0.22
2019-01-18T08:15:15.035Z,0.22
2019-01-18T08:16:12.100Z,0.22
2019-01-18T08:17:10.169Z,0.22
2019-01-18T08:18:06.246Z,0.23
2019-01-18T08:19:03.305Z,0.21
2019-01-18T08:20:00.382Z,0.23
2019-01-18T08:20:57.447Z,0.22
2019-01-18T08:21:54.522Z,0.22
2019-01-18T08:22:51.597Z,0.22
2019-01-18T08:23:48.650Z,0.23
2019-01-18T08:24:45.708Z,0.24
2019-01-18T08:25:42.776Z,0.25
2019-01-18T08:26:39.878Z,0.26
2019-01-18T08:27:36.913Z,0.26
2019-01-18T08:28:33.969Z,0.27
2019-01-18T08:29:31.055Z,0.27
2019-01-18T08:30:28.127Z,0.29
2019-01-18T08:31:28.794Z,0.30
2019-01-18T08:32:22.295Z,0.33
2019-01-18T08:33:19.329Z,0.35
2019-01-18T08:34:16.491Z,0.35
2019-01-18T08:35:13.435Z,0.39
2019-01-18T08:36:10.513Z,0.42
2019-01-18T08:37:07.595Z,0.43
2019-01-18T08:38:04.646Z,0.45
2019-01-18T08:39:01.719Z,0.49
2019-01-18T08:39:58.796Z,0.50
2019-01-18T08:40:56.841Z,0.52
2019-01-18T08:41:52.912Z,0.56
2019-01-18T08:42:49.981Z,0.58
2019-01-18T08:43:47.048Z,0.60
2019-01-18T08:44:44.119Z,0.64
2019-01-18T08:45:41.178Z,0.67
2019-01-18T08:46:38.259Z,0.69
2019-01-18T08:47:35.318Z,0.72
2019-01-18T08:48:32.379Z,0.75
2019-01-18T08:49:29.528Z,0.76
2019-01-18T08:50:26.522Z,0.80
2019-01-18T08:51:23.579Z,0.83
2019-01-18T08:52:20.648Z,0.86
2019-01-18T08:53:17.720Z,2.19
2019-01-18T08:54:15.776Z,0.91
2019-01-18T08:55:11.862Z,0.93
2019-01-18T08:56:08.912Z,0.96
2019-01-18T08:57:05.985Z,1.00
2019-01-18T08:58:03.046Z,1.04
2019-01-18T08:59:00.118Z,1.08
2019-01-18T08:59:57.190Z,1.12
2019-01-18T09:00:54.251Z,1.16
2019-01-18T09:01:52.313Z,1.21
2019-01-18T09:02:48.378Z,1.25
2019-01-18T09:03:45.610Z,1.27
2019-01-18T09:04:43.603Z,1.30
2019-01-18T09:05:39.885Z,1.34
2019-01-18T09:06:36.648Z,1.37
2019-01-18T09:07:33.723Z,1.39
2019-01-18T09:08:30.933Z,1.41
2019-01-18T09:09:27.832Z,1.44
2019-01-18T09:10:24.927Z,1.46
2019-01-18T09:11:21.979Z,1.48
2019-01-18T09:12:19.055Z,1.51
2019-01-18T09:13:16.118Z,1.52
2019-01-18T09:14:19.289Z,1.52
2019-01-18T09:15:10.240Z,1.53
2019-01-18T09:16:07.300Z,1.57
2019-01-18T09:17:04.397Z,1.59
2019-01-18T09:18:01.445Z,1.60
2019-01-18T09:18:58.525Z,1.62
2019-01-18T09:19:55.597Z,1.62
2019-01-18T09:20:52.653Z,1.65
2019-01-18T09:21:49.732Z,1.66
2019-01-18T09:22:46.768Z,1.67
2019-01-18T09:23:44.839Z,1.70
2019-01-18T09:24:42.225Z,1.71
2019-01-18T09:25:37.984Z,1.72
2019-01-18T09:26:35.035Z,1.75
2019-01-18T09:27:32.110Z,1.76
2019-01-18T09:28:29.191Z,1.77
2019-01-18T09:29:26.245Z,1.79
2019-01-18T09:30:23.332Z,1.82
2019-01-18T09:31:20.398Z,1.83
2019-01-18T09:32:17.449Z,1.84
2019-01-18T09:33:14.539Z,1.85
2019-01-18T09:34:11.597Z,1.87
2019-01-18T09:35:08.651Z,1.90
2019-01-18T09:36:05.742Z,1.91
2019-01-18T09:37:02.780Z,1.94
2019-01-18T09:37:59.876Z,1.95
2019-01-18T09:38:56.913Z,1.98
2019-01-18T09:39:53.983Z,2.00
2019-01-18T09:40:51.054Z,2.02
2019-01-18T09:41:47.626Z,2.04
2019-01-18T09:42:45.179Z,2.06
2019-01-18T09:43:43.278Z,2.08
2019-01-18T09:44:39.309Z,2.13
2019-01-18T09:45:36.382Z,2.15
2019-01-18T09:46:33.431Z,2.19
2019-01-18T09:47:30.508Z,2.20
2019-01-18T09:48:27.599Z,2.23
2019-01-18T09:49:24.635Z,2.26
2019-01-18T09:50:21.717Z,2.30
2019-01-18T09:51:19.786Z,2.32
2019-01-18T09:52:15.835Z,2.34
2019-01-18T09:53:12.903Z,2.38
2019-01-18T09:54:10.974Z,2.40
2019-01-18T09:55:08.047Z,2.43
2019-01-18T09:56:04.113Z,2.44
2019-01-18T09:57:01.185Z,2.47
2019-01-18T09:57:58.250Z,2.50
2019-01-18T09:58:55.300Z,2.50
2019-01-18T09:59:52.380Z,2.52
2019-01-18T10:00:49.622Z,2.55
2019-01-18T10:01:49.405Z,2.56
2019-01-18T10:02:43.603Z,2.58
2019-01-18T10:03:40.656Z,2.60
2019-01-18T10:04:37.717Z,2.61
2019-01-18T10:05:34.766Z,2.65
2019-01-18T10:06:31.838Z,2.67
2019-01-18T10:07:28.905Z,2.69
2019-01-18T10:08:25.978Z,2.71
2019-01-18T10:09:23.032Z,2.72
2019-01-18T10:10:20.121Z,2.75
2019-01-18T10:11:17.169Z,2.77
2019-01-18T10:12:14.246Z,2.79
2019-01-18T10:13:11.315Z,2.82
2019-01-18T10:14:08.374Z,2.88
2019-01-18T10:15:05.440Z,2.91
2019-01-18T10:16:02.507Z,2.94
2019-01-18T10:16:59.567Z,2.98
2019-01-18T10:18:00.526Z,3.01
2019-01-18T10:18:53.697Z,3.03
2019-01-18T10:19:50.774Z,3.05
2019-01-18T10:20:47.840Z,3.06
2019-01-18T10:21:46.708Z,3.10
2019-01-18T10:22:41.967Z,3.09
2019-01-18T10:23:39.050Z,3.11
2019-01-18T10:24:36.110Z,3.14
2019-01-18T10:25:33.182Z,3.16
2019-01-18T10:26:30.236Z,3.17
2019-01-18T10:27:27.320Z,3.17
2019-01-18T10:28:24.369Z,3.19
2019-01-18T10:29:28.016Z,3.20
2019-01-18T10:30:18.522Z,3.23
2019-01-18T10:31:16.563Z,3.24
2019-01-18T10:32:12.647Z,3.26
2019-01-18T10:33:09.707Z,3.26
2019-01-18T10:34:06.789Z,3.28
2019-01-18T10:35:03.840Z,3.29
2019-01-18T10:36:00.911Z,3.30
2019-01-18T10:36:57.979Z,3.29
2019-01-18T10:37:56.041Z,3.31
2019-01-18T10:38:52.104Z,3.32
2019-01-18T10:39:49.175Z,3.32
2019-01-18T10:40:46.248Z,3.33
2019-01-18T10:41:43.309Z,3.34
2019-01-18T10:42:40.369Z,3.35
2019-01-18T10:43:37.436Z,3.36
2019-01-18T10:44:34.513Z,3.38
2019-01-18T10:45:31.559Z,3.38
2019-01-18T10:46:28.635Z,3.42
2019-01-18T10:47:25.719Z,3.44
2019-01-18T10:48:22.769Z,3.46
2019-01-18T10:49:19.842Z,3.51
2019-01-18T10:50:16.892Z,3.54
2019-01-18T10:51:14.964Z,3.60
2019-01-18T10:52:11.056Z,3.66
2019-01-18T10:53:08.099Z,3.72
2019-01-18T10:54:05.176Z,3.79
2019-01-18T10:55:03.459Z,3.83
2019-01-18T10:55:59.294Z,3.91
2019-01-18T10:56:56.371Z,3.99
2019-01-18T10:57:53.745Z,4.09
2019-01-18T10:58:51.623Z,4.19
2019-01-18T10:59:48.023Z,4.32
2019-01-18T11:00:44.647Z,4.42
2019-01-18T11:01:41.700Z,4.55
2019-01-18T11:02:38.771Z,4.65
2019-01-18T11:03:35.883Z,4.76
2019-01-18T11:04:32.902Z,4.86
2019-01-18T11:05:29.986Z,4.98
2019-01-18T11:06:27.032Z,5.09
2019-01-18T11:07:24.138Z,5.23
2019-01-18T11:08:21.165Z,5.36
2019-01-18T11:09:18.319Z,5.46
2019-01-18T11:10:15.305Z,5.61
2019-01-18T11:11:12.368Z,5.73
2019-01-18T11:12:09.432Z,5.88
2019-01-18T11:13:06.499Z,5.98
2019-01-18T11:14:03.602Z,6.09
2019-01-18T11:15:00.631Z,6.21
2019-01-18T11:15:57.686Z,6.30
2019-01-18T11:16:54.764Z,6.42
2019-01-18T11:17:51.841Z,6.51
2019-01-18T11:18:48.895Z,6.59
2019-01-18T11:19:45.989Z,6.65
2019-01-18T11:20:43.035Z,6.71
2019-01-18T11:21:40.122Z,6.77
2019-01-18T11:22:37.170Z,6.79
2019-01-18T11:23:34.229Z,6.79
2019-01-18T11:24:31.299Z,6.76
2019-01-18T11:25:32.007Z,6.78
2019-01-18T11:26:25.426Z,6.80
2019-01-18T11:27:22.497Z,6.82
2019-01-18T11:28:20.567Z,6.84
2019-01-18T11:29:16.625Z,6.86
2019-01-18T11:30:13.695Z,6.88
2019-01-18T11:31:10.763Z,6.90
2019-01-18T11:32:13.578Z,6.96
2019-01-18T11:33:04.900Z,7.00
2019-01-18T11:34:01.984Z,7.07
2019-01-18T11:34:59.023Z,7.15
2019-01-18T11:35:56.106Z,7.21
2019-01-18T11:36:56.708Z,7.26
2019-01-18T11:37:50.235Z,7.28
2019-01-18T11:38:47.293Z,7.30
2019-01-18T11:39:44.348Z,7.38
2019-01-18T11:40:41.435Z,7.46
2019-01-18T11:41:38.490Z,7.53
2019-01-18T11:42:35.631Z,7.61
2019-01-18T11:43:32.633Z,7.65
2019-01-18T11:44:29.699Z,7.73
2019-01-18T11:45:26.746Z,7.82
2019-01-18T11:46:23.824Z,7.90
2019-01-18T11:47:20.892Z,8.02
2019-01-18T11:48:17.962Z,8.15
2019-01-18T11:49:15.043Z,8.32
2019-01-18T11:50:12.101Z,8.47
2019-01-18T11:51:08.657Z,8.64
2019-01-18T11:52:07.205Z,8.84
2019-01-18T11:53:03.284Z,9.01
2019-01-18T11:54:00.356Z,9.15
2019-01-18T11:54:57.425Z,9.36
2019-01-18T11:55:53.987Z,9.60
2019-01-18T11:56:51.599Z,9.88
2019-01-18T11:57:48.633Z,10.18
2019-01-18T11:58:46.698Z,10.50
2019-01-18T11:59:42.759Z,10.84
2019-01-18T12:00:39.811Z,11.05
2019-01-18T12:01:36.888Z,11.27
2019-01-18T12:02:33.443Z,11.65
2019-01-18T12:03:31.013Z,11.97
2019-01-18T12:04:28.072Z,12.21
2019-01-18T12:05:24.641Z,12.31
2019-01-18T12:06:22.204Z,12.42
2019-01-18T12:07:19.269Z,12.55
2019-01-18T12:08:15.843Z,12.61
2019-01-18T12:09:13.413Z,12.90
2019-01-18T12:10:10.465Z,13.50
2019-01-18T12:11:07.620Z,14.10
2019-01-18T12:12:04.603Z,14.75
2019-01-18T12:13:01.667Z,15.02
2019-01-18T12:13:58.733Z,15.14
2019-01-18T12:14:55.306Z,15.19
2019-01-18T12:15:52.364Z,15.21
2019-01-18T12:16:49.946Z,15.32
2019-01-18T12:17:47.000Z,16.13
2019-01-18T12:18:43.595Z,16.57
2019-01-18T12:19:40.632Z,16.63
2019-01-18T12:20:38.200Z,16.23
2019-01-18T12:21:37.206Z,16.38
2019-01-18T12:22:31.838Z,17.60
2019-01-18T12:23:29.388Z,19.05
2019-01-18T12:24:26.465Z,20.39
2019-01-18T12:25:23.607Z,21.59
2019-01-18T12:26:20.595Z,22.60
2019-01-18T12:27:17.666Z,23.48
2019-01-18T12:28:14.719Z,24.26
2019-01-18T12:29:11.802Z,24.90
2019-01-18T12:30:08.881Z,25.50
2019-01-18T12:31:05.919Z,26.03
2019-01-18T12:32:02.974Z,26.50
2019-01-18T12:32:59.549Z,26.94
2019-01-18T12:33:57.151Z,27.38
2019-01-18T12:34:54.184Z,27.81
2019-01-18T12:35:51.256Z,28.27
2019-01-18T12:36:47.817Z,28.70
2019-01-18T12:37:45.383Z,29.18